Terminal Aerodrome Forecast
Issued by NWS

Home | Current Version | Previous Version | Text Only | Print | Product List | Glossary On
Versions: 1 2 3 4 5 6 7 8 9 10 11 12 13 14 15 16 17 18 19 20 21 22 23 24 25 26
000
FTUS43 KMKX 230520
TAFENW
TAF
KENW 230520Z 2306/2406 22008KT P6SM SCT050 BKN100
     FM230900 23006KT P6SM SCT025 BKN050
      TEMPO 2309/2311 BKN025
     FM231100 22006KT P6SM VCSH BKN025
     FM231300 21006KT P6SM VCSH BKN015
     FM231700 16007KT 5SM -SHRA OVC008
     FM231800 15007KT 5SM SHRA OVC015
     FM232300 09006KT P6SM SHRA OVC060
     FM240500 04006KT P6SM -SHRA OVC070=

USA.gov is the U.S. government's official web portal to all federal, state and local government web resources and services.